Canyon Creek, Montana
Current Conditions -  °F | °C
As of 10:53 PM on Saturday 20 Dec 2014 (Local Time) from KHLN Reporting Station
Overcast Overcast  
Wind Chill: 35°   Ceiling: 5000
Heat Index: 35°   Visibility: 10mi
Dew Point: 27°   Wind: 0mph
Humidity: 72%   Direction: NA
Pressure: 29.64"   Gusts: NA
Location:  46.8°N, 112.26°W
Report Text: KHLN 210553Z AUTO 00000KT 10SM BKN050 OVC100 02/M03 A2964 RMK AO2 SLP075 T00171028 10028 20006 56014
Loading
Personal Weather Stations






























Interactive Weather Map New forecast layout! Learn more

10-Day Weather Forecast

Advertisements
Track Severe Weather on mobile